Avoca, Michigan
Current Conditions -  °F | °C
As of 9:17 AM on Saturday 22 Nov 2014 (Local Time) from KPHN Reporting Station
Unknown Precip Unknown Precip  
Wind Chill: 23°   Ceiling: 1400
Heat Index: 32°   Visibility: 7mi
Dew Point: 28°   Wind: 13mph
Humidity: 87%   Direction: 200°SSW
Pressure: 30.09"   Gusts: NA
Location:  43.06°N, 82.69°W
Report Text: KPHN 221417Z AUTO 20011KT 7SM UP OVC014 M00/M02 A3009 RMK AO2
Loading
Personal Weather Stations






























Interactive Weather Map New forecast layout! Learn more

10-Day Weather Forecast

Advertisements
Track Severe Weather on mobile